createdAt,value
2024-03-02T00:00:32.726Z,21.75
2024-03-02T00:02:59.980Z,15.23
2024-03-02T00:05:26.680Z,19.23
2024-03-02T00:07:58.407Z,16.55
2024-03-02T00:10:38.380Z,19.20
2024-03-02T00:13:05.375Z,21.02
2024-03-02T00:15:42.378Z,15.95
2024-03-02T00:18:12.855Z,23.77
2024-03-02T00:20:40.610Z,21.65
2024-03-02T00:23:08.778Z,21.00
2024-03-02T00:25:44.364Z,24.15
2024-03-02T00:28:26.470Z,20.88
2024-03-02T00:30:58.745Z,23.60
2024-03-02T00:33:29.247Z,17.83
2024-03-02T00:35:56.459Z,27.38
2024-03-02T00:38:23.646Z,21.52
2024-03-02T00:40:50.695Z,20.25
2024-03-02T00:43:38.871Z,20.58
2024-03-02T00:46:05.702Z,24.67
2024-03-02T00:48:32.779Z,20.55
2024-03-02T00:50:59.529Z,24.67
2024-03-02T00:53:27.608Z,19.10
2024-03-02T00:55:54.664Z,22.95
2024-03-02T00:58:21.344Z,22.90
2024-03-02T01:00:49.353Z,21.52
2024-03-02T01:03:16.990Z,22.02
2024-03-02T01:05:44.497Z,21.10
2024-03-02T01:08:11.882Z,18.15
2024-03-02T01:10:38.642Z,18.60
2024-03-02T01:13:05.429Z,19.65
2024-03-02T01:15:32.207Z,20.55
2024-03-02T01:17:58.938Z,18.73
2024-03-02T01:20:26.052Z,20.52
2024-03-02T01:22:53.371Z,18.05
2024-03-02T01:25:20.180Z,18.73
2024-03-02T01:27:49.142Z,19.63
2024-03-02T01:30:17.191Z,20.88
2024-03-02T01:33:03.378Z,19.58
2024-03-02T01:35:30.164Z,21.20
2024-03-02T01:37:56.827Z,21.48
2024-03-02T01:40:27.344Z,22.85
2024-03-02T01:43:04.152Z,22.38
2024-03-02T01:45:30.871Z,22.70
2024-03-02T01:47:57.937Z,20.65
2024-03-02T01:50:33.483Z,20.23
2024-03-02T01:53:01.142Z,22.30
2024-03-02T01:55:30.229Z,25.13
2024-03-02T01:57:57.730Z,23.33
2024-03-02T02:00:28.087Z,22.05
2024-03-02T02:02:56.394Z,19.45
2024-03-02T02:05:23.448Z,24.05
2024-03-02T02:07:50.595Z,20.08
2024-03-02T02:10:17.590Z,26.05
2024-03-02T02:12:44.645Z,26.35
2024-03-02T02:15:27.723Z,24.17
2024-03-02T02:17:58.508Z,26.60
2024-03-02T02:20:25.990Z,28.17
2024-03-02T02:22:57.447Z,23.17
2024-03-02T02:25:24.245Z,26.40
2024-03-02T02:27:51.197Z,23.23
2024-03-02T02:30:27.815Z,24.73
2024-03-02T02:32:54.812Z,22.75
2024-03-02T02:35:21.603Z,24.52
2024-03-02T02:37:49.237Z,22.60
2024-03-02T02:40:16.714Z,23.48
2024-03-02T02:42:44.121Z,24.17
2024-03-02T02:45:12.138Z,28.48
2024-03-02T02:47:39.186Z,22.90
2024-03-02T02:50:08.665Z,26.50
2024-03-02T02:52:37.599Z,24.38
2024-03-02T02:55:05.769Z,24.00
2024-03-02T02:57:40.063Z,21.50
2024-03-02T03:00:12.040Z,24.35
2024-03-02T03:02:40.057Z,24.95
2024-03-02T03:05:07.726Z,23.60
2024-03-02T03:07:35.529Z,20.98
2024-03-02T03:10:02.924Z,28.35
2024-03-02T03:12:29.760Z,23.15
2024-03-02T03:14:56.918Z,19.02
2024-03-02T03:17:24.273Z,25.38
2024-03-02T03:19:51.649Z,23.33
2024-03-02T03:22:18.474Z,23.13
2024-03-02T03:24:45.368Z,25.23
2024-03-02T03:27:15.035Z,31.48
2024-03-02T03:29:41.837Z,29.00
2024-03-02T03:32:08.632Z,28.60
2024-03-02T03:34:35.822Z,24.30
2024-03-02T03:37:03.317Z,26.83
2024-03-02T03:39:30.164Z,24.75
2024-03-02T03:41:57.434Z,27.80
2024-03-02T03:44:24.156Z,21.80
2024-03-02T03:46:50.858Z,26.75
2024-03-02T03:49:18.565Z,28.23
2024-03-02T03:51:45.409Z,23.95
2024-03-02T03:54:12.496Z,30.60
2024-03-02T03:56:39.359Z,23.85
2024-03-02T03:59:06.098Z,25.90
2024-03-02T04:01:33.152Z,23.35
2024-03-02T04:04:00.004Z,28.00
2024-03-02T04:06:26.875Z,27.52
2024-03-02T04:08:53.689Z,25.05
2024-03-02T04:11:20.456Z,25.98
2024-03-02T04:13:47.189Z,23.40
2024-03-02T04:16:14.004Z,24.45
2024-03-02T04:18:41.006Z,25.92
2024-03-02T04:21:07.819Z,20.52
2024-03-02T04:23:34.572Z,20.70
2024-03-02T04:26:01.292Z,22.50
2024-03-02T04:28:27.987Z,23.30
2024-03-02T04:30:54.750Z,24.63
2024-03-02T04:33:21.728Z,24.20
2024-03-02T04:35:48.512Z,25.98
2024-03-02T04:38:15.254Z,23.27
2024-03-02T04:40:41.933Z,23.42
2024-03-02T04:43:10.652Z,25.83
2024-03-02T04:45:40.554Z,27.60
2024-03-02T04:48:07.975Z,21.52
2024-03-02T04:50:34.737Z,25.85
2024-03-02T04:53:01.481Z,22.45
2024-03-02T04:55:28.145Z,27.52
2024-03-02T04:57:57.910Z,26.23
2024-03-02T05:02:52.819Z,26.27
2024-03-02T05:05:19.575Z,26.98
2024-03-02T05:07:46.609Z,24.95
2024-03-02T05:10:13.338Z,25.75
2024-03-02T05:12:46.116Z,25.70
2024-03-02T05:15:16.721Z,22.50
2024-03-02T05:17:46.874Z,26.67
2024-03-02T05:20:13.911Z,25.65
2024-03-02T05:22:41.257Z,26.02
2024-03-02T05:25:08.622Z,24.00
2024-03-02T05:27:35.533Z,27.90
2024-03-02T05:30:03.007Z,24.90
2024-03-02T05:32:29.702Z,24.67
2024-03-02T05:34:56.483Z,25.48
2024-03-02T05:37:23.391Z,26.75
2024-03-02T05:39:50.493Z,25.52
2024-03-02T05:42:18.147Z,28.95
2024-03-02T05:44:44.962Z,24.83
2024-03-02T05:47:11.782Z,24.67
2024-03-02T05:49:38.549Z,29.00
2024-03-02T05:52:05.511Z,28.23
2024-03-02T05:54:32.327Z,23.85
2024-03-02T05:57:17.805Z,28.48
2024-03-02T05:59:45.261Z,27.58
2024-03-02T06:02:12.617Z,27.73
2024-03-02T06:04:39.786Z,31.65
2024-03-02T06:07:06.787Z,24.95
2024-03-02T06:09:33.663Z,25.42
2024-03-02T06:12:00.569Z,23.30
2024-03-02T06:14:27.458Z,23.98
2024-03-02T06:16:54.145Z,24.55
2024-03-02T06:19:20.823Z,24.20
2024-03-02T06:21:47.575Z,23.52
2024-03-02T06:24:14.256Z,26.70
2024-03-02T06:26:40.986Z,27.83
2024-03-02T06:29:08.845Z,24.38
2024-03-02T06:31:39.585Z,27.15
2024-03-02T06:34:06.349Z,30.65
2024-03-02T06:36:33.209Z,26.40
2024-03-02T06:38:59.906Z,25.40
2024-03-02T06:41:27.817Z,25.88
2024-03-02T06:44:00.947Z,24.40
2024-03-02T06:46:27.895Z,28.10
2024-03-02T06:48:54.714Z,23.58
2024-03-02T06:51:21.529Z,26.45
2024-03-02T06:53:48.598Z,28.40
2024-03-02T06:56:15.374Z,30.60
2024-03-02T06:58:42.060Z,23.30
2024-03-02T07:01:08.825Z,24.60
2024-03-02T07:03:36.017Z,26.27
2024-03-02T07:06:02.833Z,26.58
2024-03-02T07:08:29.682Z,32.97
2024-03-02T07:10:56.396Z,33.90
2024-03-02T07:13:23.195Z,37.15
2024-03-02T07:15:56.018Z,30.08
2024-03-02T07:18:22.821Z,22.98
2024-03-02T07:20:50.834Z,32.15
2024-03-02T07:23:17.662Z,26.40
2024-03-02T07:28:14.065Z,30.17
2024-03-02T07:30:41.204Z,28.95
2024-03-02T07:33:08.158Z,27.23
2024-03-02T07:35:34.903Z,23.77
2024-03-02T07:38:01.941Z,29.67
2024-03-02T07:40:28.690Z,25.48
2024-03-02T07:42:56.171Z,25.20
2024-03-02T07:45:23.188Z,25.15
2024-03-02T07:47:51.272Z,25.35
2024-03-02T07:50:18.156Z,24.55
2024-03-02T07:52:44.899Z,25.42
2024-03-02T07:55:11.622Z,23.27
2024-03-02T07:57:38.474Z,29.20
2024-03-02T08:00:05.808Z,26.13
2024-03-02T08:02:32.469Z,28.13
2024-03-02T08:04:59.148Z,27.48
2024-03-02T08:07:25.876Z,29.80
2024-03-02T08:09:52.641Z,23.52
2024-03-02T08:12:20.852Z,28.85
2024-03-02T08:14:47.682Z,29.35
2024-03-02T08:17:14.391Z,28.30
2024-03-02T08:19:41.099Z,27.85
2024-03-02T08:22:08.159Z,24.25
2024-03-02T08:24:35.240Z,24.08
2024-03-02T08:27:02.173Z,25.65
2024-03-02T08:29:29.596Z,23.80
2024-03-02T08:31:56.306Z,22.90
2024-03-02T08:34:23.001Z,23.92
2024-03-02T08:36:49.953Z,23.85
2024-03-02T08:39:17.066Z,24.70
2024-03-02T08:41:45.840Z,25.33
2024-03-02T08:44:13.444Z,28.65
2024-03-02T08:46:40.815Z,29.05
2024-03-02T08:49:08.674Z,24.70
2024-03-02T08:51:35.591Z,27.48
2024-03-02T08:54:02.368Z,30.30
2024-03-02T08:56:29.083Z,29.27
2024-03-02T08:58:55.816Z,27.27
2024-03-02T09:01:23.219Z,28.83
2024-03-02T09:03:50.710Z,29.33
2024-03-02T09:06:23.481Z,25.63
2024-03-02T09:08:53.009Z,26.38
2024-03-02T09:11:19.754Z,28.30
2024-03-02T09:13:46.517Z,23.38
2024-03-02T09:16:13.493Z,24.98
2024-03-02T09:18:40.341Z,22.45
2024-03-02T09:21:07.819Z,22.75
2024-03-02T09:23:34.973Z,28.27
2024-03-02T09:26:01.809Z,29.25
2024-03-02T09:28:28.459Z,25.67
2024-03-02T09:30:56.906Z,26.23
2024-03-02T09:33:25.326Z,24.45
2024-03-02T09:35:54.274Z,29.48
2024-03-02T09:38:21.783Z,39.70
2024-03-02T09:40:48.557Z,29.30
2024-03-02T09:43:15.436Z,22.00
2024-03-02T09:45:42.447Z,26.20
2024-03-02T09:48:09.476Z,24.48
2024-03-02T09:50:36.321Z,29.05
2024-03-02T09:53:03.497Z,29.00
2024-03-02T09:55:30.247Z,23.27
2024-03-02T09:57:57.404Z,22.15
2024-03-02T10:00:24.173Z,21.02
2024-03-02T10:02:51.480Z,22.70
2024-03-02T10:05:31.289Z,21.70
2024-03-02T10:08:05.688Z,22.95
2024-03-02T10:10:44.472Z,24.15
2024-03-02T10:13:12.867Z,20.92
2024-03-02T10:15:44.091Z,22.05
2024-03-02T10:18:17.142Z,22.67
2024-03-02T10:20:43.940Z,27.40
2024-03-02T10:23:16.443Z,20.98
2024-03-02T10:25:51.751Z,24.38
2024-03-02T10:28:24.633Z,24.30
2024-03-02T10:30:54.184Z,21.95
2024-03-02T10:35:50.733Z,18.73
2024-03-02T10:38:18.470Z,23.38
2024-03-02T10:40:49.900Z,23.88
2024-03-02T10:43:17.027Z,22.58
2024-03-02T10:45:44.420Z,20.60
2024-03-02T10:48:11.387Z,20.98
2024-03-02T10:50:38.190Z,19.85
2024-03-02T10:53:07.012Z,25.80
2024-03-02T10:55:34.553Z,23.98
2024-03-02T10:58:06.148Z,17.35
2024-03-02T11:00:38.165Z,18.30
2024-03-02T11:03:07.456Z,16.55
2024-03-02T11:05:37.578Z,20.55
2024-03-02T11:08:09.509Z,20.65
2024-03-02T11:10:43.778Z,20.42
2024-03-02T11:13:12.996Z,19.38
2024-03-02T11:15:42.515Z,19.83
2024-03-02T11:18:10.307Z,21.10
2024-03-02T11:20:41.567Z,18.00
2024-03-02T11:23:09.990Z,20.00
2024-03-02T11:25:37.332Z,20.75
2024-03-02T11:28:06.587Z,18.85
2024-03-02T11:30:33.566Z,18.45
2024-03-02T11:33:00.998Z,24.23
2024-03-02T11:35:30.901Z,20.40
2024-03-02T11:38:00.037Z,23.02
2024-03-02T11:40:27.142Z,23.27
2024-03-02T11:42:54.824Z,21.67
2024-03-02T11:45:25.537Z,21.30
2024-03-02T11:47:54.643Z,23.05
2024-03-02T11:50:48.321Z,20.50
2024-03-02T11:53:15.494Z,19.65
2024-03-02T11:55:42.438Z,20.92
2024-03-02T11:58:09.348Z,19.52
2024-03-02T12:00:36.562Z,18.10
2024-03-02T12:03:07.281Z,16.42
2024-03-02T12:05:34.592Z,13.77
2024-03-02T12:08:03.709Z,15.48
2024-03-02T12:10:31.804Z,14.75
2024-03-02T12:12:58.901Z,17.08
2024-03-02T12:15:30.743Z,14.10
2024-03-02T12:17:59.120Z,14.25
2024-03-02T12:20:27.615Z,19.58
2024-03-02T12:22:55.590Z,14.15
2024-03-02T12:25:23.946Z,15.50
2024-03-02T12:27:54.687Z,14.63
2024-03-02T12:30:22.098Z,13.18
2024-03-02T12:32:49.285Z,18.05
2024-03-02T12:35:18.295Z,17.67
2024-03-02T12:37:48.800Z,13.77
2024-03-02T12:40:18.921Z,12.35
2024-03-02T12:42:47.316Z,13.93
2024-03-02T12:45:15.133Z,16.42
2024-03-02T12:47:43.228Z,14.43
2024-03-02T12:50:12.134Z,14.38
2024-03-02T12:52:38.886Z,16.02
2024-03-02T12:55:06.945Z,12.95
2024-03-02T12:57:34.500Z,11.45
2024-03-02T13:00:10.299Z,13.18
2024-03-02T13:02:40.455Z,13.68
2024-03-02T13:05:12.216Z,12.18
2024-03-02T13:07:39.581Z,11.75
2024-03-02T13:10:08.858Z,10.35
2024-03-02T13:12:37.312Z,10.30
2024-03-02T13:15:05.192Z,11.00
2024-03-02T13:17:37.623Z,12.88
2024-03-02T13:20:09.486Z,15.30
2024-03-02T13:22:37.118Z,17.75
2024-03-02T13:25:05.542Z,15.25
2024-03-02T13:27:36.124Z,15.27
2024-03-02T13:30:06.991Z,14.48
2024-03-02T13:32:34.120Z,15.43
2024-03-02T13:35:01.474Z,15.20
2024-03-02T13:37:28.260Z,13.30
2024-03-02T13:39:55.251Z,13.15
2024-03-02T13:42:22.257Z,22.70
2024-03-02T13:44:51.083Z,24.35
2024-03-02T13:47:18.308Z,16.45
2024-03-02T13:49:47.143Z,14.63
2024-03-02T13:52:18.413Z,20.77
2024-03-02T13:54:47.381Z,17.45
2024-03-02T13:57:14.578Z,18.67
2024-03-02T13:59:43.231Z,17.83
2024-03-02T14:02:10.873Z,17.35
2024-03-02T14:04:38.736Z,17.58
2024-03-02T14:07:09.886Z,16.35
2024-03-02T14:09:37.480Z,16.45
2024-03-02T14:12:05.840Z,16.90
2024-03-02T14:14:32.847Z,16.13
2024-03-02T14:17:04.545Z,15.63
2024-03-02T14:19:31.769Z,15.63
2024-03-02T14:21:58.911Z,14.90
2024-03-02T14:24:27.091Z,17.67
2024-03-02T14:27:00.779Z,20.13
2024-03-02T14:29:31.116Z,17.10
2024-03-02T14:31:57.832Z,15.60
2024-03-02T14:34:24.652Z,20.25
2024-03-02T14:36:51.584Z,17.58
2024-03-02T14:39:20.201Z,20.60
2024-03-02T14:41:46.937Z,19.63
2024-03-02T14:44:13.952Z,18.63
2024-03-02T14:46:42.132Z,18.90
2024-03-02T14:49:09.494Z,20.23
2024-03-02T14:51:36.311Z,19.85
2024-03-02T14:54:04.210Z,21.55
2024-03-02T14:56:31.024Z,20.35
2024-03-02T14:58:57.778Z,21.08
2024-03-02T15:01:25.698Z,19.90
2024-03-02T15:03:53.121Z,22.00
2024-03-02T15:06:19.973Z,16.23
2024-03-02T15:08:47.714Z,20.67
2024-03-02T15:11:14.600Z,19.38
2024-03-02T15:13:41.739Z,22.55
2024-03-02T15:16:08.819Z,20.27
2024-03-02T15:18:36.162Z,20.65
2024-03-02T15:21:03.367Z,19.60
2024-03-02T15:23:31.068Z,22.65
2024-03-02T15:25:57.958Z,24.63
2024-03-02T15:28:24.737Z,20.90
2024-03-02T15:30:53.435Z,21.75
2024-03-02T15:33:22.054Z,21.25
2024-03-02T15:35:48.773Z,20.25
2024-03-02T15:38:24.960Z,22.00
2024-03-02T15:40:59.246Z,24.80
2024-03-02T15:43:25.901Z,22.50
2024-03-02T15:45:52.779Z,22.48
2024-03-02T15:48:19.564Z,24.33
2024-03-02T15:50:46.549Z,27.40
2024-03-02T15:53:14.289Z,21.80
2024-03-02T15:55:41.055Z,24.38
2024-03-02T15:58:07.924Z,26.17
2024-03-02T16:00:35.028Z,25.95
2024-03-02T16:03:02.545Z,27.30
2024-03-02T16:05:29.290Z,24.75
2024-03-02T16:07:56.016Z,24.08
2024-03-02T16:10:22.785Z,25.02
2024-03-02T16:12:49.616Z,25.77
2024-03-02T16:15:16.493Z,22.00
2024-03-02T16:17:43.182Z,24.05
2024-03-02T16:20:11.345Z,32.47
2024-03-02T16:22:38.234Z,36.17
2024-03-02T16:25:06.083Z,40.42
2024-03-02T16:27:33.030Z,39.95
2024-03-02T16:30:00.307Z,39.22
2024-03-02T16:32:27.520Z,39.45
2024-03-02T16:34:54.792Z,43.15
2024-03-02T16:37:21.819Z,41.38
2024-03-02T16:39:49.747Z,40.45
2024-03-02T16:42:16.566Z,41.83
2024-03-02T16:44:43.350Z,44.55
2024-03-02T16:47:12.381Z,51.45
2024-03-02T16:49:40.478Z,39.15
2024-03-02T16:52:07.339Z,38.78
2024-03-02T16:54:34.124Z,38.38
2024-03-02T16:57:00.894Z,43.60
2024-03-02T16:59:27.610Z,40.63
2024-03-02T17:01:54.403Z,45.85
2024-03-02T17:04:24.613Z,43.80
2024-03-02T17:06:52.167Z,56.90
2024-03-02T17:09:18.931Z,39.55
2024-03-02T17:11:45.795Z,34.10
2024-03-02T17:14:12.803Z,34.03
2024-03-02T17:16:39.554Z,31.30
2024-03-02T17:19:06.327Z,29.25
2024-03-02T17:21:33.846Z,31.67
2024-03-02T17:24:03.570Z,36.08
2024-03-02T17:26:30.887Z,34.45
2024-03-02T17:28:57.634Z,31.80
2024-03-02T17:31:24.547Z,35.80
2024-03-02T17:33:51.401Z,34.65
2024-03-02T17:36:18.230Z,33.15
2024-03-02T17:38:44.983Z,39.50
2024-03-02T17:41:12.202Z,36.67
2024-03-02T17:43:39.139Z,35.40
2024-03-02T17:46:06.276Z,36.78
2024-03-02T17:48:33.519Z,34.67
2024-03-02T17:51:00.185Z,35.92
2024-03-02T17:53:26.960Z,38.53
2024-03-02T17:55:53.792Z,34.22
2024-03-02T17:58:20.597Z,31.92
2024-03-02T18:01:06.120Z,29.63
2024-03-02T18:03:33.415Z,31.25
2024-03-02T18:06:00.234Z,34.03
2024-03-02T18:08:26.988Z,33.42
2024-03-02T18:10:54.214Z,33.83
2024-03-02T18:13:21.040Z,34.47
2024-03-02T18:15:50.257Z,36.47
2024-03-02T18:18:18.253Z,37.00
2024-03-02T18:20:46.148Z,37.58
2024-03-02T18:23:14.108Z,35.92
2024-03-02T18:25:43.262Z,36.70
2024-03-02T18:28:09.946Z,35.70
2024-03-02T18:30:36.969Z,38.72
2024-03-02T18:33:05.153Z,34.55
2024-03-02T18:35:32.000Z,32.50
2024-03-02T18:37:58.737Z,33.65
2024-03-02T18:40:25.471Z,37.58
2024-03-02T18:42:52.341Z,32.30
2024-03-02T18:45:19.068Z,31.10
2024-03-02T18:47:45.919Z,39.33
2024-03-02T18:50:13.398Z,29.75
2024-03-02T18:52:40.074Z,26.40
2024-03-02T18:55:08.540Z,27.13
2024-03-02T18:57:36.045Z,31.70
2024-03-02T19:00:06.409Z,25.02
2024-03-02T19:02:33.163Z,29.25
2024-03-02T19:05:01.962Z,27.42
2024-03-02T19:07:29.537Z,26.02
2024-03-02T19:09:56.376Z,26.05
2024-03-02T19:12:24.673Z,24.17
2024-03-02T19:14:54.394Z,22.95
2024-03-02T19:17:21.180Z,24.42
2024-03-02T19:19:47.856Z,26.70
2024-03-02T19:22:14.630Z,32.47
2024-03-02T19:24:41.453Z,27.40
2024-03-02T19:27:08.228Z,33.40
2024-03-02T19:29:34.939Z,33.63
2024-03-02T19:32:05.629Z,30.00
2024-03-02T19:34:35.460Z,35.35
2024-03-02T19:37:02.321Z,28.98
2024-03-02T19:39:30.837Z,29.58
2024-03-02T19:42:00.377Z,27.23
2024-03-02T19:44:32.673Z,28.67
2024-03-02T19:46:59.767Z,28.00
2024-03-02T19:49:26.703Z,27.83
2024-03-02T19:51:53.655Z,22.33
2024-03-02T19:54:20.438Z,25.65
2024-03-02T19:56:47.231Z,27.38
2024-03-02T19:59:14.283Z,25.88
2024-03-02T20:01:41.903Z,24.60
2024-03-02T20:04:09.294Z,27.27
2024-03-02T20:06:36.141Z,24.42
2024-03-02T20:09:03.001Z,24.30
2024-03-02T20:11:33.326Z,26.08
2024-03-02T20:14:00.935Z,31.00
2024-03-02T20:16:27.769Z,24.95
2024-03-02T20:18:54.543Z,21.95
2024-03-02T20:21:21.353Z,22.63
2024-03-02T20:23:48.057Z,27.70
2024-03-02T20:26:14.733Z,22.10
2024-03-02T20:28:41.447Z,15.13
2024-03-02T20:31:09.215Z,19.17
2024-03-02T20:33:36.108Z,18.88
2024-03-02T20:36:04.157Z,17.50
2024-03-02T20:38:30.909Z,15.85
2024-03-02T20:40:57.615Z,15.20
2024-03-02T20:43:24.298Z,15.32
2024-03-02T20:45:51.012Z,14.50
2024-03-02T20:48:18.970Z,17.80
2024-03-02T20:50:48.367Z,15.70
2024-03-02T20:53:16.052Z,13.70
2024-03-02T20:55:43.210Z,13.68
2024-03-02T20:58:09.929Z,15.48
2024-03-02T21:00:36.723Z,13.55
2024-03-02T21:03:04.762Z,15.48
2024-03-02T21:05:32.358Z,11.63
2024-03-02T21:07:59.013Z,13.02
2024-03-02T21:10:25.811Z,13.27
2024-03-02T21:12:52.635Z,12.98
2024-03-02T21:15:19.556Z,11.15
2024-03-02T21:17:46.343Z,12.63
2024-03-02T21:20:13.717Z,11.65
2024-03-02T21:22:42.172Z,10.25
2024-03-02T21:25:13.104Z,14.65
2024-03-02T21:27:40.385Z,12.88
2024-03-02T21:30:07.912Z,10.75
2024-03-02T21:32:35.479Z,11.00
2024-03-02T21:35:02.466Z,9.38
2024-03-02T21:37:29.265Z,10.77
2024-03-02T21:39:56.438Z,16.90
2024-03-02T21:42:24.194Z,11.65
2024-03-02T21:44:51.290Z,11.90
2024-03-02T21:47:18.086Z,11.55
2024-03-02T21:49:44.775Z,10.05
2024-03-02T21:52:11.624Z,11.85
2024-03-02T21:54:38.440Z,12.70
2024-03-02T21:57:07.297Z,9.07
2024-03-02T21:59:34.604Z,9.25
2024-03-02T22:02:01.419Z,11.48
2024-03-02T22:04:28.195Z,11.27
2024-03-02T22:06:55.214Z,10.40
2024-03-02T22:09:21.983Z,11.70
2024-03-02T22:11:48.636Z,11.05
2024-03-02T22:14:19.968Z,11.77
2024-03-02T22:16:47.277Z,9.30
2024-03-02T22:19:14.052Z,11.77
2024-03-02T22:21:40.909Z,10.13
2024-03-02T22:24:07.730Z,9.85
2024-03-02T22:26:34.516Z,12.13
2024-03-02T22:29:01.283Z,11.57
2024-03-02T22:31:28.002Z,12.52
2024-03-02T22:33:54.730Z,12.15
2024-03-02T22:36:21.483Z,12.23
2024-03-02T22:38:48.648Z,11.55
2024-03-02T22:41:15.452Z,11.48
2024-03-02T22:43:42.130Z,18.92
2024-03-02T22:46:09.592Z,14.48
2024-03-02T22:48:36.343Z,17.10
2024-03-02T22:51:03.254Z,20.17
2024-03-02T22:53:30.031Z,17.85
2024-03-02T22:55:56.875Z,21.13
2024-03-02T22:58:23.559Z,20.33
2024-03-02T23:00:58.847Z,21.55
2024-03-02T23:03:26.117Z,24.67
2024-03-02T23:05:52.771Z,22.58
2024-03-02T23:08:19.468Z,18.17
2024-03-02T23:10:46.779Z,19.08
2024-03-02T23:13:13.992Z,21.58
2024-03-02T23:15:40.864Z,20.73
2024-03-02T23:18:07.820Z,20.75
2024-03-02T23:20:34.547Z,20.02
2024-03-02T23:23:05.647Z,22.25
2024-03-02T23:25:36.153Z,23.77
2024-03-02T23:28:03.513Z,19.67
2024-03-02T23:30:30.489Z,21.75
2024-03-02T23:32:57.994Z,21.13
2024-03-02T23:35:24.842Z,21.10
2024-03-02T23:37:52.243Z,22.83
2024-03-02T23:40:34.070Z,22.40
2024-03-02T23:43:00.821Z,18.45
2024-03-02T23:45:27.550Z,20.67
2024-03-02T23:47:54.383Z,22.58
2024-03-02T23:50:21.310Z,21.08
2024-03-02T23:52:47.989Z,19.95
2024-03-02T23:55:14.776Z,18.23
2024-03-02T23:57:41.547Z,21.48
